sensor_id;sensor_type;location;lat;lon;timestamp;P1;durP1;ratioP1;P2;durP2;ratioP2
40595;SDS011;26304;48.794;9.820;2023-02-03T00:03:41;0.32;;;0.32;;
40595;SDS011;26304;48.794;9.820;2023-02-03T00:09:23;0.60;;;0.60;;
40595;SDS011;26304;48.794;9.820;2023-02-03T00:15:08;0.47;;;0.45;;
40595;SDS011;26304;48.794;9.820;2023-02-03T00:20:51;0.50;;;0.47;;
40595;SDS011;26304;48.794;9.820;2023-02-03T00:26:33;0.73;;;0.60;;
40595;SDS011;26304;48.794;9.820;2023-02-03T00:32:17;0.50;;;0.50;;
40595;SDS011;26304;48.794;9.820;2023-02-03T00:38:00;0.60;;;0.52;;
40595;SDS011;26304;48.794;9.820;2023-02-03T00:43:42;0.60;;;0.60;;
40595;SDS011;26304;48.794;9.820;2023-02-03T00:49:26;0.40;;;0.40;;
40595;SDS011;26304;48.794;9.820;2023-02-03T00:55:08;0.68;;;0.65;;
40595;SDS011;26304;48.794;9.820;2023-02-03T01:00:52;0.50;;;0.50;;
40595;SDS011;26304;48.794;9.820;2023-02-03T01:06:36;0.38;;;0.38;;
40595;SDS011;26304;48.794;9.820;2023-02-03T01:12:21;0.40;;;0.40;;
40595;SDS011;26304;48.794;9.820;2023-02-03T01:18:03;0.50;;;0.50;;
40595;SDS011;26304;48.794;9.820;2023-02-03T01:23:47;0.50;;;0.38;;
40595;SDS011;26304;48.794;9.820;2023-02-03T01:29:29;0.40;;;0.40;;
40595;SDS011;26304;48.794;9.820;2023-02-03T01:35:12;0.40;;;0.40;;
40595;SDS011;26304;48.794;9.820;2023-02-03T01:40:56;0.52;;;0.38;;
40595;SDS011;26304;48.794;9.820;2023-02-03T01:46:38;0.60;;;0.52;;
40595;SDS011;26304;48.794;9.820;2023-02-03T01:52:27;0.50;;;0.50;;
40595;SDS011;26304;48.794;9.820;2023-02-03T01:58:13;0.43;;;0.43;;
40595;SDS011;26304;48.794;9.820;2023-02-03T02:04:00;0.25;;;0.25;;
40595;SDS011;26304;48.794;9.820;2023-02-03T02:09:45;0.40;;;0.40;;
40595;SDS011;26304;48.794;9.820;2023-02-03T02:15:31;1.40;;;0.45;;
40595;SDS011;26304;48.794;9.820;2023-02-03T02:21:38;0.40;;;0.40;;
40595;SDS011;26304;48.794;9.820;2023-02-03T02:27:34;0.47;;;0.47;;
40595;SDS011;26304;48.794;9.820;2023-02-03T02:33:42;0.35;;;0.30;;
40595;SDS011;26304;48.794;9.820;2023-02-03T02:39:36;0.45;;;0.38;;
40595;SDS011;26304;48.794;9.820;2023-02-03T02:45:25;0.40;;;0.40;;
40595;SDS011;26304;48.794;9.820;2023-02-03T02:51:13;0.40;;;0.40;;
40595;SDS011;26304;48.794;9.820;2023-02-03T02:56:57;0.50;;;0.40;;
40595;SDS011;26304;48.794;9.820;2023-02-03T03:02:42;0.50;;;0.43;;
40595;SDS011;26304;48.794;9.820;2023-02-03T03:08:28;0.32;;;0.32;;
40595;SDS011;26304;48.794;9.820;2023-02-03T03:14:14;0.45;;;0.45;;
40595;SDS011;26304;48.794;9.820;2023-02-03T03:20:00;0.30;;;0.30;;
40595;SDS011;26304;48.794;9.820;2023-02-03T03:25:48;0.20;;;0.20;;
40595;SDS011;26304;48.794;9.820;2023-02-03T03:31:35;0.40;;;0.40;;
40595;SDS011;26304;48.794;9.820;2023-02-03T03:37:21;0.40;;;0.30;;
40595;SDS011;26304;48.794;9.820;2023-02-03T03:43:14;0.20;;;0.20;;
40595;SDS011;26304;48.794;9.820;2023-02-03T03:48:59;0.20;;;0.20;;
40595;SDS011;26304;48.794;9.820;2023-02-03T03:54:43;0.10;;;0.10;;
40595;SDS011;26304;48.794;9.820;2023-02-03T04:00:29;0.10;;;0.10;;
40595;SDS011;26304;48.794;9.820;2023-02-03T04:06:14;0.10;;;0.10;;
40595;SDS011;26304;48.794;9.820;2023-02-03T04:11:57;0.10;;;0.10;;
40595;SDS011;26304;48.794;9.820;2023-02-03T04:17:44;0.10;;;0.10;;
40595;SDS011;26304;48.794;9.820;2023-02-03T04:23:26;0.32;;;0.20;;
40595;SDS011;26304;48.794;9.820;2023-02-03T04:29:08;0.10;;;0.10;;
40595;SDS011;26304;48.794;9.820;2023-02-03T04:34:52;0.00;;;0.00;;
40595;SDS011;26304;48.794;9.820;2023-02-03T04:40:35;1.65;;;0.30;;
40595;SDS011;26304;48.794;9.820;2023-02-03T04:46:17;0.90;;;0.13;;
40595;SDS011;26304;48.794;9.820;2023-02-03T04:52:01;0.52;;;0.10;;
40595;SDS011;26304;48.794;9.820;2023-02-03T04:57:43;0.25;;;0.22;;
40595;SDS011;26304;48.794;9.820;2023-02-03T05:03:26;0.85;;;0.08;;
40595;SDS011;26304;48.794;9.820;2023-02-03T05:09:09;0.40;;;0.15;;
40595;SDS011;26304;48.794;9.820;2023-02-03T05:14:52;1.52;;;0.20;;
40595;SDS011;26304;48.794;9.820;2023-02-03T05:20:34;0.50;;;0.20;;
40595;SDS011;26304;48.794;9.820;2023-02-03T05:26:18;0.35;;;0.30;;
40595;SDS011;26304;48.794;9.820;2023-02-03T05:32:00;0.98;;;0.30;;
40595;SDS011;26304;48.794;9.820;2023-02-03T05:37:43;0.85;;;0.40;;
40595;SDS011;26304;48.794;9.820;2023-02-03T05:43:27;2.60;;;0.20;;
40595;SDS011;26304;48.794;9.820;2023-02-03T05:49:10;0.40;;;0.40;;
40595;SDS011;26304;48.794;9.820;2023-02-03T05:54:52;0.50;;;0.40;;
40595;SDS011;26304;48.794;9.820;2023-02-03T06:00:36;0.68;;;0.28;;
40595;SDS011;26304;48.794;9.820;2023-02-03T06:06:18;3.28;;;0.80;;
40595;SDS011;26304;48.794;9.820;2023-02-03T06:12:01;2.10;;;0.60;;
40595;SDS011;26304;48.794;9.820;2023-02-03T06:17:45;1.60;;;1.13;;
40595;SDS011;26304;48.794;9.820;2023-02-03T06:23:28;2.08;;;0.52;;
40595;SDS011;26304;48.794;9.820;2023-02-03T06:29:11;2.17;;;0.70;;
40595;SDS011;26304;48.794;9.820;2023-02-03T06:34:54;4.05;;;0.73;;
40595;SDS011;26304;48.794;9.820;2023-02-03T06:40:37;1.40;;;0.85;;
40595;SDS011;26304;48.794;9.820;2023-02-03T06:46:19;1.85;;;0.80;;
40595;SDS011;26304;48.794;9.820;2023-02-03T06:52:03;1.63;;;0.80;;
40595;SDS011;26304;48.794;9.820;2023-02-03T06:57:46;1.45;;;0.60;;
40595;SDS011;26304;48.794;9.820;2023-02-03T07:03:29;1.55;;;0.77;;
40595;SDS011;26304;48.794;9.820;2023-02-03T07:09:13;2.70;;;0.90;;
40595;SDS011;26304;48.794;9.820;2023-02-03T07:14:55;2.83;;;0.70;;
40595;SDS011;26304;48.794;9.820;2023-02-03T07:20:55;2.40;;;1.02;;
40595;SDS011;26304;48.794;9.820;2023-02-03T07:26:38;2.08;;;0.93;;
40595;SDS011;26304;48.794;9.820;2023-02-03T07:32:20;0.63;;;0.40;;
40595;SDS011;26304;48.794;9.820;2023-02-03T07:38:04;0.85;;;0.60;;
40595;SDS011;26304;48.794;9.820;2023-02-03T07:43:46;2.47;;;0.70;;
40595;SDS011;26304;48.794;9.820;2023-02-03T07:49:29;1.17;;;0.82;;
40595;SDS011;26304;48.794;9.820;2023-02-03T07:55:12;1.08;;;0.50;;
40595;SDS011;26304;48.794;9.820;2023-02-03T08:00:55;1.15;;;0.68;;
40595;SDS011;26304;48.794;9.820;2023-02-03T08:06:37;3.38;;;0.70;;
40595;SDS011;26304;48.794;9.820;2023-02-03T08:12:21;1.17;;;0.82;;
40595;SDS011;26304;48.794;9.820;2023-02-03T08:18:04;0.60;;;0.40;;
40595;SDS011;26304;48.794;9.820;2023-02-03T08:23:48;0.47;;;0.43;;
40595;SDS011;26304;48.794;9.820;2023-02-03T08:29:32;0.60;;;0.30;;
40595;SDS011;26304;48.794;9.820;2023-02-03T08:35:14;0.47;;;0.40;;
40595;SDS011;26304;48.794;9.820;2023-02-03T08:40:57;0.73;;;0.50;;
40595;SDS011;26304;48.794;9.820;2023-02-03T08:46:40;1.65;;;0.60;;
40595;SDS011;26304;48.794;9.820;2023-02-03T08:52:24;0.77;;;0.55;;
40595;SDS011;26304;48.794;9.820;2023-02-03T08:58:06;0.50;;;0.50;;
40595;SDS011;26304;48.794;9.820;2023-02-03T09:03:50;1.38;;;0.43;;
40595;SDS011;26304;48.794;9.820;2023-02-03T09:09:32;1.10;;;0.50;;
40595;SDS011;26304;48.794;9.820;2023-02-03T09:15:15;0.93;;;0.65;;
40595;SDS011;26304;48.794;9.820;2023-02-03T09:21:06;1.60;;;0.60;;
40595;SDS011;26304;48.794;9.820;2023-02-03T09:26:51;1.35;;;0.50;;
40595;SDS011;26304;48.794;9.820;2023-02-03T09:32:34;0.57;;;0.35;;
40595;SDS011;26304;48.794;9.820;2023-02-03T09:38:17;0.75;;;0.57;;
40595;SDS011;26304;48.794;9.820;2023-02-03T09:44:01;0.52;;;0.50;;
40595;SDS011;26304;48.794;9.820;2023-02-03T09:49:50;0.50;;;0.50;;
40595;SDS011;26304;48.794;9.820;2023-02-03T09:55:40;0.45;;;0.40;;
40595;SDS011;26304;48.794;9.820;2023-02-03T10:01:26;0.40;;;0.40;;
40595;SDS011;26304;48.794;9.820;2023-02-03T10:07:16;0.80;;;0.50;;
40595;SDS011;26304;48.794;9.820;2023-02-03T10:13:14;0.50;;;0.50;;
40595;SDS011;26304;48.794;9.820;2023-02-03T10:19:08;0.95;;;0.57;;
40595;SDS011;26304;48.794;9.820;2023-02-03T10:24:55;0.75;;;0.50;;
40595;SDS011;26304;48.794;9.820;2023-02-03T10:30:43;0.90;;;0.50;;
40595;SDS011;26304;48.794;9.820;2023-02-03T10:36:31;0.40;;;0.40;;
40595;SDS011;26304;48.794;9.820;2023-02-03T10:42:25;0.45;;;0.45;;
40595;SDS011;26304;48.794;9.820;2023-02-03T10:48:31;1.60;;;0.60;;
40595;SDS011;26304;48.794;9.820;2023-02-03T10:54:27;2.15;;;0.73;;
40595;SDS011;26304;48.794;9.820;2023-02-03T11:00:19;0.90;;;0.40;;
40595;SDS011;26304;48.794;9.820;2023-02-03T11:06:06;1.67;;;0.40;;
40595;SDS011;26304;48.794;9.820;2023-02-03T11:12:01;2.65;;;0.40;;
40595;SDS011;26304;48.794;9.820;2023-02-03T11:17:46;3.00;;;0.52;;
40595;SDS011;26304;48.794;9.820;2023-02-03T11:23:30;0.57;;;0.40;;
40595;SDS011;26304;48.794;9.820;2023-02-03T11:29:14;2.55;;;0.57;;
40595;SDS011;26304;48.794;9.820;2023-02-03T11:34:59;4.57;;;0.80;;
40595;SDS011;26304;48.794;9.820;2023-02-03T11:40:44;3.25;;;0.70;;
40595;SDS011;26304;48.794;9.820;2023-02-03T11:46:28;1.50;;;0.50;;
40595;SDS011;26304;48.794;9.820;2023-02-03T11:52:16;1.33;;;0.50;;
40595;SDS011;26304;48.794;9.820;2023-02-03T11:58:27;1.20;;;0.60;;
40595;SDS011;26304;48.794;9.820;2023-02-03T12:04:34;3.00;;;0.73;;
40595;SDS011;26304;48.794;9.820;2023-02-03T12:10:40;1.83;;;0.80;;
40595;SDS011;26304;48.794;9.820;2023-02-03T12:16:50;0.57;;;0.45;;
40595;SDS011;26304;48.794;9.820;2023-02-03T12:22:46;3.03;;;0.65;;
40595;SDS011;26304;48.794;9.820;2023-02-03T12:28:43;4.47;;;0.60;;
40595;SDS011;26304;48.794;9.820;2023-02-03T12:34:32;1.50;;;0.60;;
40595;SDS011;26304;48.794;9.820;2023-02-03T12:40:20;2.17;;;0.50;;
40595;SDS011;26304;48.794;9.820;2023-02-03T12:46:09;0.52;;;0.40;;
40595;SDS011;26304;48.794;9.820;2023-02-03T12:52:00;3.22;;;0.70;;
40595;SDS011;26304;48.794;9.820;2023-02-03T12:57:48;2.00;;;0.57;;
40595;SDS011;26304;48.794;9.820;2023-02-03T13:03:38;2.28;;;0.63;;
40595;SDS011;26304;48.794;9.820;2023-02-03T13:09:29;6.78;;;1.17;;
40595;SDS011;26304;48.794;9.820;2023-02-03T13:15:19;5.03;;;0.77;;
40595;SDS011;26304;48.794;9.820;2023-02-03T13:21:09;3.20;;;0.70;;
40595;SDS011;26304;48.794;9.820;2023-02-03T13:27:06;3.33;;;0.90;;
40595;SDS011;26304;48.794;9.820;2023-02-03T13:39:33;1.25;;;0.70;;
40595;SDS011;26304;48.794;9.820;2023-02-03T13:45:26;2.92;;;0.73;;
40595;SDS011;26304;48.794;9.820;2023-02-03T13:51:14;0.75;;;0.65;;
40595;SDS011;26304;48.794;9.820;2023-02-03T13:56:59;1.05;;;0.40;;
40595;SDS011;26304;48.794;9.820;2023-02-03T14:02:45;2.20;;;0.60;;
40595;SDS011;26304;48.794;9.820;2023-02-03T14:14:42;1.63;;;0.50;;
40595;SDS011;26304;48.794;9.820;2023-02-03T14:26:37;0.70;;;0.40;;
40595;SDS011;26304;48.794;9.820;2023-02-03T14:32:22;0.80;;;0.50;;
40595;SDS011;26304;48.794;9.820;2023-02-03T14:38:07;1.25;;;0.60;;
40595;SDS011;26304;48.794;9.820;2023-02-03T14:43:52;1.67;;;0.50;;
40595;SDS011;26304;48.794;9.820;2023-02-03T14:49:47;0.35;;;0.30;;
40595;SDS011;26304;48.794;9.820;2023-02-03T14:55:53;0.35;;;0.32;;
40595;SDS011;26304;48.794;9.820;2023-02-03T15:07:51;0.75;;;0.55;;
40595;SDS011;26304;48.794;9.820;2023-02-03T15:13:35;1.70;;;0.60;;
40595;SDS011;26304;48.794;9.820;2023-02-03T15:19:19;0.90;;;0.50;;
40595;SDS011;26304;48.794;9.820;2023-02-03T15:25:10;0.80;;;0.38;;
40595;SDS011;26304;48.794;9.820;2023-02-03T15:31:01;1.05;;;0.50;;
40595;SDS011;26304;48.794;9.820;2023-02-03T15:36:48;0.98;;;0.60;;
40595;SDS011;26304;48.794;9.820;2023-02-03T15:42:33;1.23;;;0.40;;
40595;SDS011;26304;48.794;9.820;2023-02-03T15:48:22;0.50;;;0.50;;
40595;SDS011;26304;48.794;9.820;2023-02-03T15:54:14;2.35;;;0.70;;
40595;SDS011;26304;48.794;9.820;2023-02-03T16:00:07;2.50;;;0.70;;
40595;SDS011;26304;48.794;9.820;2023-02-03T16:05:54;3.13;;;0.55;;
40595;SDS011;26304;48.794;9.820;2023-02-03T16:11:36;0.65;;;0.50;;
40595;SDS011;26304;48.794;9.820;2023-02-03T16:17:21;0.80;;;0.65;;
40595;SDS011;26304;48.794;9.820;2023-02-03T16:23:16;2.22;;;0.70;;
40595;SDS011;26304;48.794;9.820;2023-02-03T16:29:07;3.45;;;0.85;;
40595;SDS011;26304;48.794;9.820;2023-02-03T16:35:10;2.95;;;0.63;;
40595;SDS011;26304;48.794;9.820;2023-02-03T16:41:14;2.60;;;0.80;;
40595;SDS011;26304;48.794;9.820;2023-02-03T16:47:20;2.33;;;0.55;;
40595;SDS011;26304;48.794;9.820;2023-02-03T16:53:22;3.83;;;0.60;;
40595;SDS011;26304;48.794;9.820;2023-02-03T16:59:07;4.55;;;0.50;;
40595;SDS011;26304;48.794;9.820;2023-02-03T17:04:50;2.15;;;0.77;;
40595;SDS011;26304;48.794;9.820;2023-02-03T17:10:32;1.45;;;0.55;;
40595;SDS011;26304;48.794;9.820;2023-02-03T17:16:18;1.60;;;0.70;;
40595;SDS011;26304;48.794;9.820;2023-02-03T17:22:02;0.70;;;0.60;;
40595;SDS011;26304;48.794;9.820;2023-02-03T17:27:45;2.83;;;0.70;;
40595;SDS011;26304;48.794;9.820;2023-02-03T17:33:29;0.98;;;0.50;;
40595;SDS011;26304;48.794;9.820;2023-02-03T17:39:12;1.17;;;0.60;;
40595;SDS011;26304;48.794;9.820;2023-02-03T17:44:54;0.85;;;0.60;;
40595;SDS011;26304;48.794;9.820;2023-02-03T17:50:38;1.38;;;0.75;;
40595;SDS011;26304;48.794;9.820;2023-02-03T17:56:21;3.10;;;0.88;;
40595;SDS011;26304;48.794;9.820;2023-02-03T18:02:05;2.40;;;0.65;;
40595;SDS011;26304;48.794;9.820;2023-02-03T18:07:49;0.85;;;0.70;;
40595;SDS011;26304;48.794;9.820;2023-02-03T18:13:34;1.88;;;0.90;;
40595;SDS011;26304;48.794;9.820;2023-02-03T18:19:17;3.83;;;1.00;;
40595;SDS011;26304;48.794;9.820;2023-02-03T18:25:00;2.58;;;0.63;;
40595;SDS011;26304;48.794;9.820;2023-02-03T18:30:43;2.65;;;0.70;;
40595;SDS011;26304;48.794;9.820;2023-02-03T18:36:25;2.60;;;1.27;;
40595;SDS011;26304;48.794;9.820;2023-02-03T18:42:09;9.15;;;2.92;;
40595;SDS011;26304;48.794;9.820;2023-02-03T18:47:51;7.03;;;1.65;;
40595;SDS011;26304;48.794;9.820;2023-02-03T18:53:34;4.45;;;1.60;;
40595;SDS011;26304;48.794;9.820;2023-02-03T18:59:19;4.43;;;1.40;;
40595;SDS011;26304;48.794;9.820;2023-02-03T19:05:02;7.78;;;2.03;;
40595;SDS011;26304;48.794;9.820;2023-02-03T19:10:45;2.90;;;1.40;;
40595;SDS011;26304;48.794;9.820;2023-02-03T19:16:29;3.60;;;1.50;;
40595;SDS011;26304;48.794;9.820;2023-02-03T19:22:12;3.90;;;1.55;;
40595;SDS011;26304;48.794;9.820;2023-02-03T19:27:54;4.32;;;1.58;;
40595;SDS011;26304;48.794;9.820;2023-02-03T19:33:38;3.35;;;1.52;;
40595;SDS011;26304;48.794;9.820;2023-02-03T19:39:21;5.50;;;1.30;;
40595;SDS011;26304;48.794;9.820;2023-02-03T19:45:04;2.63;;;1.13;;
40595;SDS011;26304;48.794;9.820;2023-02-03T19:50:48;2.95;;;0.90;;
40595;SDS011;26304;48.794;9.820;2023-02-03T19:56:31;1.17;;;0.82;;
40595;SDS011;26304;48.794;9.820;2023-02-03T20:02:13;2.22;;;0.98;;
40595;SDS011;26304;48.794;9.820;2023-02-03T20:07:58;0.80;;;0.80;;
40595;SDS011;26304;48.794;9.820;2023-02-03T20:13:40;6.82;;;1.40;;
40595;SDS011;26304;48.794;9.820;2023-02-03T20:19:23;3.00;;;1.13;;
40595;SDS011;26304;48.794;9.820;2023-02-03T20:25:07;2.88;;;1.00;;
40595;SDS011;26304;48.794;9.820;2023-02-03T20:30:50;1.67;;;0.75;;
40595;SDS011;26304;48.794;9.820;2023-02-03T20:36:33;2.17;;;0.60;;
40595;SDS011;26304;48.794;9.820;2023-02-03T20:42:17;2.60;;;0.60;;
40595;SDS011;26304;48.794;9.820;2023-02-03T20:47:59;0.65;;;0.50;;
40595;SDS011;26304;48.794;9.820;2023-02-03T20:53:44;3.22;;;0.60;;
40595;SDS011;26304;48.794;9.820;2023-02-03T20:59:29;0.60;;;0.60;;
40595;SDS011;26304;48.794;9.820;2023-02-03T21:05:19;0.68;;;0.68;;
40595;SDS011;26304;48.794;9.820;2023-02-03T21:11:08;0.88;;;0.40;;
40595;SDS011;26304;48.794;9.820;2023-02-03T21:16:52;1.25;;;0.40;;
40595;SDS011;26304;48.794;9.820;2023-02-03T21:22:35;1.00;;;0.40;;
40595;SDS011;26304;48.794;9.820;2023-02-03T21:28:20;0.50;;;0.50;;
40595;SDS011;26304;48.794;9.820;2023-02-03T21:34:12;0.40;;;0.40;;
40595;SDS011;26304;48.794;9.820;2023-02-03T21:46:20;0.75;;;0.60;;
40595;SDS011;26304;48.794;9.820;2023-02-03T21:52:09;0.40;;;0.40;;
40595;SDS011;26304;48.794;9.820;2023-02-03T21:57:53;0.40;;;0.40;;
40595;SDS011;26304;48.794;9.820;2023-02-03T22:03:36;0.50;;;0.50;;
40595;SDS011;26304;48.794;9.820;2023-02-03T22:09:25;0.40;;;0.40;;
40595;SDS011;26304;48.794;9.820;2023-02-03T22:15:08;0.40;;;0.40;;
40595;SDS011;26304;48.794;9.820;2023-02-03T22:20:50;0.47;;;0.38;;
40595;SDS011;26304;48.794;9.820;2023-02-03T22:26:35;0.30;;;0.30;;
40595;SDS011;26304;48.794;9.820;2023-02-03T22:32:17;1.08;;;0.40;;
40595;SDS011;26304;48.794;9.820;2023-02-03T22:37:59;0.45;;;0.30;;
40595;SDS011;26304;48.794;9.820;2023-02-03T22:43:43;0.50;;;0.50;;
40595;SDS011;26304;48.794;9.820;2023-02-03T22:49:26;0.45;;;0.45;;
40595;SDS011;26304;48.794;9.820;2023-02-03T22:55:09;0.30;;;0.30;;
40595;SDS011;26304;48.794;9.820;2023-02-03T23:00:52;0.40;;;0.40;;
40595;SDS011;26304;48.794;9.820;2023-02-03T23:06:35;0.30;;;0.30;;
40595;SDS011;26304;48.794;9.820;2023-02-03T23:12:17;0.30;;;0.30;;
40595;SDS011;26304;48.794;9.820;2023-02-03T23:18:01;0.30;;;0.30;;
40595;SDS011;26304;48.794;9.820;2023-02-03T23:23:43;0.30;;;0.30;;
40595;SDS011;26304;48.794;9.820;2023-02-03T23:29:26;0.45;;;0.45;;
40595;SDS011;26304;48.794;9.820;2023-02-03T23:35:10;0.55;;;0.50;;
40595;SDS011;26304;48.794;9.820;2023-02-03T23:41:10;0.43;;;0.43;;
40595;SDS011;26304;48.794;9.820;2023-02-03T23:46:52;0.30;;;0.30;;
40595;SDS011;26304;48.794;9.820;2023-02-03T23:52:36;0.30;;;0.30;;
40595;SDS011;26304;48.794;9.820;2023-02-03T23:58:18;0.35;;;0.35;;
